sensor_id;sensor_type;location;lat;lon;timestamp;temperature;humidity
25991;DHT22;13779;-33.886;151.198;2024-01-11T00:02:21;26.40;99.90
25991;DHT22;13779;-33.886;151.198;2024-01-11T00:04:52;26.40;99.90
25991;DHT22;13779;-33.886;151.198;2024-01-11T00:07:22;26.40;99.90
25991;DHT22;13779;-33.886;151.198;2024-01-11T00:09:52;26.40;99.90
25991;DHT22;13779;-33.886;151.198;2024-01-11T00:12:24;26.40;99.90
25991;DHT22;13779;-33.886;151.198;2024-01-11T00:14:54;26.40;99.90
25991;DHT22;13779;-33.886;151.198;2024-01-11T00:17:24;26.40;99.90
25991;DHT22;13779;-33.886;151.198;2024-01-11T00:19:55;26.50;99.90
25991;DHT22;13779;-33.886;151.198;2024-01-11T00:22:25;26.50;99.90
25991;DHT22;13779;-33.886;151.198;2024-01-11T00:24:55;26.50;99.90
25991;DHT22;13779;-33.886;151.198;2024-01-11T00:27:25;26.50;99.90
25991;DHT22;13779;-33.886;151.198;2024-01-11T00:29:55;26.50;99.90
25991;DHT22;13779;-33.886;151.198;2024-01-11T00:32:26;26.50;99.90
25991;DHT22;13779;-33.886;151.198;2024-01-11T00:34:56;26.60;99.90
25991;DHT22;13779;-33.886;151.198;2024-01-11T00:37:27;26.60;99.90
25991;DHT22;13779;-33.886;151.198;2024-01-11T00:39:57;26.60;99.90
25991;DHT22;13779;-33.886;151.198;2024-01-11T00:42:28;26.50;99.90
25991;DHT22;13779;-33.886;151.198;2024-01-11T00:44:58;26.40;99.90
25991;DHT22;13779;-33.886;151.198;2024-01-11T00:47:29;26.30;99.90
25991;DHT22;13779;-33.886;151.198;2024-01-11T00:50:00;26.30;99.90
25991;DHT22;13779;-33.886;151.198;2024-01-11T00:52:29;26.30;99.90
25991;DHT22;13779;-33.886;151.198;2024-01-11T00:54:59;26.30;99.90
25991;DHT22;13779;-33.886;151.198;2024-01-11T00:57:30;26.20;99.90
25991;DHT22;13779;-33.886;151.198;2024-01-11T01:00:00;26.20;99.90
25991;DHT22;13779;-33.886;151.198;2024-01-11T01:02:33;26.20;99.90
25991;DHT22;13779;-33.886;151.198;2024-01-11T01:05:04;26.20;99.90
25991;DHT22;13779;-33.886;151.198;2024-01-11T01:07:34;26.10;99.90
25991;DHT22;13779;-33.886;151.198;2024-01-11T01:10:05;26.10;99.90
25991;DHT22;13779;-33.886;151.198;2024-01-11T01:12:37;26.10;99.90
25991;DHT22;13779;-33.886;151.198;2024-01-11T01:15:08;26.10;99.90
25991;DHT22;13779;-33.886;151.198;2024-01-11T01:17:38;26.20;99.90
25991;DHT22;13779;-33.886;151.198;2024-01-11T01:20:09;26.20;99.90
25991;DHT22;13779;-33.886;151.198;2024-01-11T01:22:39;26.20;99.90
25991;DHT22;13779;-33.886;151.198;2024-01-11T01:25:09;26.20;99.90
25991;DHT22;13779;-33.886;151.198;2024-01-11T01:27:40;26.10;99.90
25991;DHT22;13779;-33.886;151.198;2024-01-11T01:30:10;26.10;99.90
25991;DHT22;13779;-33.886;151.198;2024-01-11T01:32:40;26.20;99.90
25991;DHT22;13779;-33.886;151.198;2024-01-11T01:35:12;26.20;99.90
25991;DHT22;13779;-33.886;151.198;2024-01-11T01:37:42;26.30;99.90
25991;DHT22;13779;-33.886;151.198;2024-01-11T01:40:13;26.40;99.90
25991;DHT22;13779;-33.886;151.198;2024-01-11T01:42:44;26.30;99.90
25991;DHT22;13779;-33.886;151.198;2024-01-11T01:45:16;26.40;99.90
25991;DHT22;13779;-33.886;151.198;2024-01-11T01:47:46;26.40;99.90
25991;DHT22;13779;-33.886;151.198;2024-01-11T01:50:19;26.40;99.90
25991;DHT22;13779;-33.886;151.198;2024-01-11T01:52:50;26.30;99.90
25991;DHT22;13779;-33.886;151.198;2024-01-11T01:55:23;26.30;99.90
25991;DHT22;13779;-33.886;151.198;2024-01-11T01:57:52;26.30;99.90
25991;DHT22;13779;-33.886;151.198;2024-01-11T02:00:23;26.30;99.90
25991;DHT22;13779;-33.886;151.198;2024-01-11T02:02:55;26.30;99.90
25991;DHT22;13779;-33.886;151.198;2024-01-11T02:05:26;26.30;99.90
25991;DHT22;13779;-33.886;151.198;2024-01-11T02:08:00;26.30;99.90
25991;DHT22;13779;-33.886;151.198;2024-01-11T02:10:33;26.30;99.90
25991;DHT22;13779;-33.886;151.198;2024-01-11T02:13:08;26.30;99.90
25991;DHT22;13779;-33.886;151.198;2024-01-11T02:15:38;26.40;99.90
25991;DHT22;13779;-33.886;151.198;2024-01-11T02:18:09;26.50;99.90
25991;DHT22;13779;-33.886;151.198;2024-01-11T02:20:39;26.60;99.90
25991;DHT22;13779;-33.886;151.198;2024-01-11T02:23:17;26.60;99.90
25991;DHT22;13779;-33.886;151.198;2024-01-11T02:25:49;26.70;99.90
25991;DHT22;13779;-33.886;151.198;2024-01-11T02:28:20;26.70;99.90
25991;DHT22;13779;-33.886;151.198;2024-01-11T02:30:51;26.80;99.90
25991;DHT22;13779;-33.886;151.198;2024-01-11T02:33:21;26.90;99.90
25991;DHT22;13779;-33.886;151.198;2024-01-11T02:35:52;27.00;99.90
25991;DHT22;13779;-33.886;151.198;2024-01-11T02:38:22;26.90;99.90
25991;DHT22;13779;-33.886;151.198;2024-01-11T02:40:53;27.00;99.90
25991;DHT22;13779;-33.886;151.198;2024-01-11T02:43:24;27.10;99.90
25991;DHT22;13779;-33.886;151.198;2024-01-11T02:45:55;27.10;99.90
25991;DHT22;13779;-33.886;151.198;2024-01-11T02:48:31;27.10;99.90
25991;DHT22;13779;-33.886;151.198;2024-01-11T02:51:02;27.00;99.90
25991;DHT22;13779;-33.886;151.198;2024-01-11T02:53:32;26.90;99.90
25991;DHT22;13779;-33.886;151.198;2024-01-11T02:56:04;27.00;99.90
25991;DHT22;13779;-33.886;151.198;2024-01-11T02:58:34;27.00;99.90
25991;DHT22;13779;-33.886;151.198;2024-01-11T03:01:04;27.00;99.90
25991;DHT22;13779;-33.886;151.198;2024-01-11T03:03:35;27.10;99.90
25991;DHT22;13779;-33.886;151.198;2024-01-11T03:06:05;27.30;99.90
25991;DHT22;13779;-33.886;151.198;2024-01-11T03:08:36;27.30;99.90
25991;DHT22;13779;-33.886;151.198;2024-01-11T03:11:06;27.30;99.90
25991;DHT22;13779;-33.886;151.198;2024-01-11T03:13:36;27.40;99.90
25991;DHT22;13779;-33.886;151.198;2024-01-11T03:16:07;27.50;99.90
25991;DHT22;13779;-33.886;151.198;2024-01-11T03:18:37;27.50;99.90
25991;DHT22;13779;-33.886;151.198;2024-01-11T03:21:07;27.40;99.90
25991;DHT22;13779;-33.886;151.198;2024-01-11T03:23:38;27.30;99.90
25991;DHT22;13779;-33.886;151.198;2024-01-11T03:26:15;27.30;99.90
25991;DHT22;13779;-33.886;151.198;2024-01-11T03:28:45;27.20;99.90
25991;DHT22;13779;-33.886;151.198;2024-01-11T03:31:16;27.30;99.90
25991;DHT22;13779;-33.886;151.198;2024-01-11T03:33:46;27.20;99.90
25991;DHT22;13779;-33.886;151.198;2024-01-11T03:36:16;27.20;99.90
25991;DHT22;13779;-33.886;151.198;2024-01-11T03:38:50;27.20;99.90
25991;DHT22;13779;-33.886;151.198;2024-01-11T03:41:20;27.20;99.90
25991;DHT22;13779;-33.886;151.198;2024-01-11T03:43:53;27.10;99.90
25991;DHT22;13779;-33.886;151.198;2024-01-11T03:46:23;27.10;99.90
25991;DHT22;13779;-33.886;151.198;2024-01-11T03:48:54;27.10;99.90
25991;DHT22;13779;-33.886;151.198;2024-01-11T03:51:26;27.10;99.90
25991;DHT22;13779;-33.886;151.198;2024-01-11T03:53:56;27.10;99.90
25991;DHT22;13779;-33.886;151.198;2024-01-11T03:56:27;27.10;99.90
25991;DHT22;13779;-33.886;151.198;2024-01-11T03:58:57;27.10;99.90
25991;DHT22;13779;-33.886;151.198;2024-01-11T04:01:27;27.20;99.90
25991;DHT22;13779;-33.886;151.198;2024-01-11T04:03:57;27.20;99.90
25991;DHT22;13779;-33.886;151.198;2024-01-11T04:06:28;27.20;99.90
25991;DHT22;13779;-33.886;151.198;2024-01-11T04:08:58;27.20;99.90
25991;DHT22;13779;-33.886;151.198;2024-01-11T04:11:29;27.20;99.90
25991;DHT22;13779;-33.886;151.198;2024-01-11T04:13:59;27.30;99.90
25991;DHT22;13779;-33.886;151.198;2024-01-11T04:16:30;27.30;99.90
25991;DHT22;13779;-33.886;151.198;2024-01-11T04:19:00;27.30;99.90
25991;DHT22;13779;-33.886;151.198;2024-01-11T04:21:32;27.20;99.90
25991;DHT22;13779;-33.886;151.198;2024-01-11T04:24:03;27.20;99.90
25991;DHT22;13779;-33.886;151.198;2024-01-11T04:26:33;27.30;99.90
25991;DHT22;13779;-33.886;151.198;2024-01-11T04:29:04;27.30;99.90
25991;DHT22;13779;-33.886;151.198;2024-01-11T04:31:34;27.30;99.90
25991;DHT22;13779;-33.886;151.198;2024-01-11T04:34:05;27.40;99.90
25991;DHT22;13779;-33.886;151.198;2024-01-11T04:36:37;27.50;99.90
25991;DHT22;13779;-33.886;151.198;2024-01-11T04:39:08;27.40;99.90
25991;DHT22;13779;-33.886;151.198;2024-01-11T04:41:40;27.40;99.90
25991;DHT22;13779;-33.886;151.198;2024-01-11T04:44:10;27.30;99.90
25991;DHT22;13779;-33.886;151.198;2024-01-11T04:46:41;27.30;99.90
25991;DHT22;13779;-33.886;151.198;2024-01-11T04:49:12;27.30;99.90
25991;DHT22;13779;-33.886;151.198;2024-01-11T04:51:43;27.30;99.90
25991;DHT22;13779;-33.886;151.198;2024-01-11T04:54:14;27.30;99.90
25991;DHT22;13779;-33.886;151.198;2024-01-11T04:56:44;27.20;99.90
25991;DHT22;13779;-33.886;151.198;2024-01-11T04:59:16;27.20;99.90
25991;DHT22;13779;-33.886;151.198;2024-01-11T05:01:47;27.20;99.90
25991;DHT22;13779;-33.886;151.198;2024-01-11T05:04:18;27.20;99.90
25991;DHT22;13779;-33.886;151.198;2024-01-11T05:06:48;27.30;99.90
25991;DHT22;13779;-33.886;151.198;2024-01-11T05:09:19;27.30;99.90
25991;DHT22;13779;-33.886;151.198;2024-01-11T05:11:49;27.30;99.90
25991;DHT22;13779;-33.886;151.198;2024-01-11T05:14:21;27.20;99.90
25991;DHT22;13779;-33.886;151.198;2024-01-11T05:16:51;27.30;99.90
25991;DHT22;13779;-33.886;151.198;2024-01-11T05:19:22;27.30;99.90
25991;DHT22;13779;-33.886;151.198;2024-01-11T05:21:52;27.40;99.90
25991;DHT22;13779;-33.886;151.198;2024-01-11T05:24:26;27.30;99.90
25991;DHT22;13779;-33.886;151.198;2024-01-11T05:26:58;27.30;99.90
25991;DHT22;13779;-33.886;151.198;2024-01-11T05:29:29;27.50;99.90
25991;DHT22;13779;-33.886;151.198;2024-01-11T05:32:01;27.60;99.90
25991;DHT22;13779;-33.886;151.198;2024-01-11T05:34:32;27.50;99.90
25991;DHT22;13779;-33.886;151.198;2024-01-11T05:37:03;27.50;99.90
25991;DHT22;13779;-33.886;151.198;2024-01-11T05:39:34;27.50;99.90
25991;DHT22;13779;-33.886;151.198;2024-01-11T05:42:06;27.40;99.90
25991;DHT22;13779;-33.886;151.198;2024-01-11T05:44:35;27.30;99.90
25991;DHT22;13779;-33.886;151.198;2024-01-11T05:47:07;27.30;99.90
25991;DHT22;13779;-33.886;151.198;2024-01-11T05:49:37;27.30;99.90
25991;DHT22;13779;-33.886;151.198;2024-01-11T05:52:08;27.20;99.90
25991;DHT22;13779;-33.886;151.198;2024-01-11T05:54:38;27.10;99.90
25991;DHT22;13779;-33.886;151.198;2024-01-11T05:57:08;27.20;99.90
25991;DHT22;13779;-33.886;151.198;2024-01-11T05:59:43;27.00;99.90
25991;DHT22;13779;-33.886;151.198;2024-01-11T06:02:13;27.00;99.90
25991;DHT22;13779;-33.886;151.198;2024-01-11T06:04:44;26.90;99.90
25991;DHT22;13779;-33.886;151.198;2024-01-11T06:07:16;26.90;99.90
25991;DHT22;13779;-33.886;151.198;2024-01-11T06:09:46;26.90;99.90
25991;DHT22;13779;-33.886;151.198;2024-01-11T06:12:16;26.80;99.90
25991;DHT22;13779;-33.886;151.198;2024-01-11T06:14:47;26.90;99.90
25991;DHT22;13779;-33.886;151.198;2024-01-11T06:17:17;26.90;99.90
25991;DHT22;13779;-33.886;151.198;2024-01-11T06:19:47;26.80;99.90
25991;DHT22;13779;-33.886;151.198;2024-01-11T06:22:18;26.80;99.90
25991;DHT22;13779;-33.886;151.198;2024-01-11T06:24:48;26.70;99.90
25991;DHT22;13779;-33.886;151.198;2024-01-11T06:27:19;26.60;99.90
25991;DHT22;13779;-33.886;151.198;2024-01-11T06:29:49;26.60;99.90
25991;DHT22;13779;-33.886;151.198;2024-01-11T06:32:19;26.70;99.90
25991;DHT22;13779;-33.886;151.198;2024-01-11T06:34:52;26.70;99.90
25991;DHT22;13779;-33.886;151.198;2024-01-11T06:37:24;26.70;99.90
25991;DHT22;13779;-33.886;151.198;2024-01-11T06:39:54;26.70;99.90
25991;DHT22;13779;-33.886;151.198;2024-01-11T06:42:25;26.70;99.90
25991;DHT22;13779;-33.886;151.198;2024-01-11T06:44:56;26.70;99.90
25991;DHT22;13779;-33.886;151.198;2024-01-11T06:47:27;26.70;99.90
25991;DHT22;13779;-33.886;151.198;2024-01-11T06:50:01;26.60;99.90
25991;DHT22;13779;-33.886;151.198;2024-01-11T06:52:32;26.70;99.90
25991;DHT22;13779;-33.886;151.198;2024-01-11T06:55:03;26.70;99.90
25991;DHT22;13779;-33.886;151.198;2024-01-11T06:57:33;26.60;99.90
25991;DHT22;13779;-33.886;151.198;2024-01-11T07:00:05;26.60;99.90
25991;DHT22;13779;-33.886;151.198;2024-01-11T07:02:36;26.60;99.90
25991;DHT22;13779;-33.886;151.198;2024-01-11T07:05:08;26.60;99.90
25991;DHT22;13779;-33.886;151.198;2024-01-11T07:07:39;26.70;99.90
25991;DHT22;13779;-33.886;151.198;2024-01-11T07:10:09;26.70;99.90
25991;DHT22;13779;-33.886;151.198;2024-01-11T07:12:39;26.70;99.90
25991;DHT22;13779;-33.886;151.198;2024-01-11T07:15:12;26.60;99.90
25991;DHT22;13779;-33.886;151.198;2024-01-11T07:17:42;26.60;99.90
25991;DHT22;13779;-33.886;151.198;2024-01-11T07:20:13;26.60;99.90
25991;DHT22;13779;-33.886;151.198;2024-01-11T07:22:45;26.60;99.90
25991;DHT22;13779;-33.886;151.198;2024-01-11T07:25:22;26.50;99.90
25991;DHT22;13779;-33.886;151.198;2024-01-11T07:28:02;26.50;99.90
25991;DHT22;13779;-33.886;151.198;2024-01-11T07:30:35;26.50;99.90
25991;DHT22;13779;-33.886;151.198;2024-01-11T07:33:06;26.50;99.90
25991;DHT22;13779;-33.886;151.198;2024-01-11T07:35:37;26.50;99.90
25991;DHT22;13779;-33.886;151.198;2024-01-11T07:38:07;26.50;99.90
25991;DHT22;13779;-33.886;151.198;2024-01-11T07:40:38;26.50;99.90
25991;DHT22;13779;-33.886;151.198;2024-01-11T07:43:10;26.40;99.90
25991;DHT22;13779;-33.886;151.198;2024-01-11T07:45:41;26.40;99.90
25991;DHT22;13779;-33.886;151.198;2024-01-11T07:48:12;26.50;99.90
25991;DHT22;13779;-33.886;151.198;2024-01-11T07:50:43;26.40;99.90
25991;DHT22;13779;-33.886;151.198;2024-01-11T07:53:14;26.40;99.90
25991;DHT22;13779;-33.886;151.198;2024-01-11T07:55:48;26.30;99.90
25991;DHT22;13779;-33.886;151.198;2024-01-11T07:58:19;26.30;99.90
25991;DHT22;13779;-33.886;151.198;2024-01-11T08:00:50;26.20;99.90
25991;DHT22;13779;-33.886;151.198;2024-01-11T08:03:26;26.20;99.90
25991;DHT22;13779;-33.886;151.198;2024-01-11T08:05:57;26.20;99.90
25991;DHT22;13779;-33.886;151.198;2024-01-11T08:08:27;26.20;99.90
25991;DHT22;13779;-33.886;151.198;2024-01-11T08:11:09;26.20;99.90
25991;DHT22;13779;-33.886;151.198;2024-01-11T08:13:43;26.20;99.90
25991;DHT22;13779;-33.886;151.198;2024-01-11T08:16:20;26.30;99.90
25991;DHT22;13779;-33.886;151.198;2024-01-11T08:18:54;26.30;99.90
25991;DHT22;13779;-33.886;151.198;2024-01-11T08:21:25;26.20;99.90
25991;DHT22;13779;-33.886;151.198;2024-01-11T08:23:59;26.20;99.90
25991;DHT22;13779;-33.886;151.198;2024-01-11T08:26:31;26.20;99.90
25991;DHT22;13779;-33.886;151.198;2024-01-11T08:29:05;26.10;99.90
25991;DHT22;13779;-33.886;151.198;2024-01-11T08:31:35;26.10;99.90
25991;DHT22;13779;-33.886;151.198;2024-01-11T08:34:07;26.10;99.90
25991;DHT22;13779;-33.886;151.198;2024-01-11T08:36:38;26.10;99.90
25991;DHT22;13779;-33.886;151.198;2024-01-11T08:39:09;26.00;99.90
25991;DHT22;13779;-33.886;151.198;2024-01-11T08:41:41;26.00;99.90
25991;DHT22;13779;-33.886;151.198;2024-01-11T08:44:12;26.00;99.90
25991;DHT22;13779;-33.886;151.198;2024-01-11T08:46:42;26.00;99.90
25991;DHT22;13779;-33.886;151.198;2024-01-11T08:49:19;26.00;99.90
25991;DHT22;13779;-33.886;151.198;2024-01-11T08:51:51;26.00;99.90
25991;DHT22;13779;-33.886;151.198;2024-01-11T08:54:21;26.00;99.90
25991;DHT22;13779;-33.886;151.198;2024-01-11T08:56:57;26.00;99.90
25991;DHT22;13779;-33.886;151.198;2024-01-11T08:59:27;26.00;99.90
25991;DHT22;13779;-33.886;151.198;2024-01-11T09:01:58;26.00;99.90
25991;DHT22;13779;-33.886;151.198;2024-01-11T09:04:33;26.00;99.90
25991;DHT22;13779;-33.886;151.198;2024-01-11T09:07:04;26.00;99.90
25991;DHT22;13779;-33.886;151.198;2024-01-11T09:09:35;25.90;99.90
25991;DHT22;13779;-33.886;151.198;2024-01-11T09:12:11;25.90;99.90
25991;DHT22;13779;-33.886;151.198;2024-01-11T09:14:40;25.90;99.90
25991;DHT22;13779;-33.886;151.198;2024-01-11T09:17:11;25.90;99.90
25991;DHT22;13779;-33.886;151.198;2024-01-11T09:19:42;25.90;99.90
25991;DHT22;13779;-33.886;151.198;2024-01-11T09:22:12;25.90;99.90
25991;DHT22;13779;-33.886;151.198;2024-01-11T09:24:43;25.90;99.90
25991;DHT22;13779;-33.886;151.198;2024-01-11T09:27:14;25.90;99.90
25991;DHT22;13779;-33.886;151.198;2024-01-11T09:29:46;25.90;99.90
25991;DHT22;13779;-33.886;151.198;2024-01-11T09:32:19;25.90;99.90
25991;DHT22;13779;-33.886;151.198;2024-01-11T09:34:49;25.90;99.90
25991;DHT22;13779;-33.886;151.198;2024-01-11T09:37:20;25.90;99.90
25991;DHT22;13779;-33.886;151.198;2024-01-11T09:39:51;25.90;99.90
25991;DHT22;13779;-33.886;151.198;2024-01-11T09:42:22;25.90;99.90
25991;DHT22;13779;-33.886;151.198;2024-01-11T09:44:54;25.90;99.90
25991;DHT22;13779;-33.886;151.198;2024-01-11T09:47:27;25.90;99.90
25991;DHT22;13779;-33.886;151.198;2024-01-11T09:50:02;25.90;99.90
25991;DHT22;13779;-33.886;151.198;2024-01-11T09:52:32;26.00;99.90
25991;DHT22;13779;-33.886;151.198;2024-01-11T09:55:04;25.90;99.90
25991;DHT22;13779;-33.886;151.198;2024-01-11T09:57:37;26.00;99.90
25991;DHT22;13779;-33.886;151.198;2024-01-11T10:00:09;26.00;99.90
25991;DHT22;13779;-33.886;151.198;2024-01-11T10:02:43;26.00;99.90
25991;DHT22;13779;-33.886;151.198;2024-01-11T10:05:13;26.00;99.90
25991;DHT22;13779;-33.886;151.198;2024-01-11T10:07:44;25.90;99.90
25991;DHT22;13779;-33.886;151.198;2024-01-11T10:10:15;25.90;99.90
25991;DHT22;13779;-33.886;151.198;2024-01-11T10:12:46;25.90;99.90
25991;DHT22;13779;-33.886;151.198;2024-01-11T10:15:17;25.90;99.90
25991;DHT22;13779;-33.886;151.198;2024-01-11T10:17:48;25.90;99.90
25991;DHT22;13779;-33.886;151.198;2024-01-11T10:20:18;25.90;99.90
25991;DHT22;13779;-33.886;151.198;2024-01-11T10:22:53;25.90;99.90
25991;DHT22;13779;-33.886;151.198;2024-01-11T10:25:24;25.90;99.90
25991;DHT22;13779;-33.886;151.198;2024-01-11T10:27:58;25.90;99.90
25991;DHT22;13779;-33.886;151.198;2024-01-11T10:30:28;25.90;99.90
25991;DHT22;13779;-33.886;151.198;2024-01-11T10:32:58;25.90;99.90
25991;DHT22;13779;-33.886;151.198;2024-01-11T10:35:29;25.90;99.90
25991;DHT22;13779;-33.886;151.198;2024-01-11T10:37:59;25.90;99.90
25991;DHT22;13779;-33.886;151.198;2024-01-11T10:40:30;25.90;99.90
25991;DHT22;13779;-33.886;151.198;2024-01-11T10:43:01;25.90;99.90
25991;DHT22;13779;-33.886;151.198;2024-01-11T10:45:33;26.00;99.90
25991;DHT22;13779;-33.886;151.198;2024-01-11T10:48:16;26.00;99.90
25991;DHT22;13779;-33.886;151.198;2024-01-11T10:50:53;26.10;99.90
25991;DHT22;13779;-33.886;151.198;2024-01-11T10:53:45;26.10;99.90
25991;DHT22;13779;-33.886;151.198;2024-01-11T10:56:17;26.10;99.90
25991;DHT22;13779;-33.886;151.198;2024-01-11T10:58:50;26.10;99.90
25991;DHT22;13779;-33.886;151.198;2024-01-11T11:01:20;26.10;99.90
25991;DHT22;13779;-33.886;151.198;2024-01-11T11:03:54;26.00;99.90
25991;DHT22;13779;-33.886;151.198;2024-01-11T11:06:28;26.00;99.90
25991;DHT22;13779;-33.886;151.198;2024-01-11T11:09:01;26.00;99.90
25991;DHT22;13779;-33.886;151.198;2024-01-11T11:11:34;25.90;99.90
25991;DHT22;13779;-33.886;151.198;2024-01-11T11:14:06;25.90;99.90
25991;DHT22;13779;-33.886;151.198;2024-01-11T11:16:38;25.90;99.90
25991;DHT22;13779;-33.886;151.198;2024-01-11T11:19:09;25.90;99.90
25991;DHT22;13779;-33.886;151.198;2024-01-11T11:21:51;25.90;99.90
25991;DHT22;13779;-33.886;151.198;2024-01-11T11:24:23;25.80;99.90
25991;DHT22;13779;-33.886;151.198;2024-01-11T11:26:54;25.80;99.90
25991;DHT22;13779;-33.886;151.198;2024-01-11T11:29:27;25.80;99.90
25991;DHT22;13779;-33.886;151.198;2024-01-11T11:31:58;25.80;99.90
25991;DHT22;13779;-33.886;151.198;2024-01-11T11:34:44;25.80;99.90
25991;DHT22;13779;-33.886;151.198;2024-01-11T11:37:23;25.80;99.90
25991;DHT22;13779;-33.886;151.198;2024-01-11T11:39:54;25.70;99.90
25991;DHT22;13779;-33.886;151.198;2024-01-11T11:42:26;25.70;99.90
25991;DHT22;13779;-33.886;151.198;2024-01-11T11:45:00;25.70;99.90
25991;DHT22;13779;-33.886;151.198;2024-01-11T11:47:35;25.70;99.90
25991;DHT22;13779;-33.886;151.198;2024-01-11T11:50:10;25.60;99.90
25991;DHT22;13779;-33.886;151.198;2024-01-11T11:52:42;25.60;99.90
25991;DHT22;13779;-33.886;151.198;2024-01-11T11:55:12;25.60;99.90
25991;DHT22;13779;-33.886;151.198;2024-01-11T11:57:43;25.60;99.90
25991;DHT22;13779;-33.886;151.198;2024-01-11T12:00:16;25.60;99.90
25991;DHT22;13779;-33.886;151.198;2024-01-11T12:02:50;25.60;99.90
25991;DHT22;13779;-33.886;151.198;2024-01-11T12:05:23;25.50;99.90
25991;DHT22;13779;-33.886;151.198;2024-01-11T12:07:55;25.50;99.90
25991;DHT22;13779;-33.886;151.198;2024-01-11T12:10:28;25.60;99.90
25991;DHT22;13779;-33.886;151.198;2024-01-11T12:12:59;25.60;99.90
25991;DHT22;13779;-33.886;151.198;2024-01-11T12:15:29;25.50;99.90
25991;DHT22;13779;-33.886;151.198;2024-01-11T12:18:00;25.50;99.90
25991;DHT22;13779;-33.886;151.198;2024-01-11T12:20:32;25.50;99.90
25991;DHT22;13779;-33.886;151.198;2024-01-11T12:23:04;25.50;99.90
25991;DHT22;13779;-33.886;151.198;2024-01-11T12:25:37;25.40;99.90
25991;DHT22;13779;-33.886;151.198;2024-01-11T12:28:09;25.50;99.90
25991;DHT22;13779;-33.886;151.198;2024-01-11T12:30:40;25.50;99.90
25991;DHT22;13779;-33.886;151.198;2024-01-11T12:33:12;25.40;99.90
25991;DHT22;13779;-33.886;151.198;2024-01-11T12:35:44;25.50;99.90
25991;DHT22;13779;-33.886;151.198;2024-01-11T12:38:15;25.50;99.90
25991;DHT22;13779;-33.886;151.198;2024-01-11T12:40:46;25.50;99.90
25991;DHT22;13779;-33.886;151.198;2024-01-11T12:43:17;25.50;99.90
25991;DHT22;13779;-33.886;151.198;2024-01-11T12:45:48;25.50;99.90
25991;DHT22;13779;-33.886;151.198;2024-01-11T12:48:19;25.50;99.90
25991;DHT22;13779;-33.886;151.198;2024-01-11T12:50:51;25.50;99.90
25991;DHT22;13779;-33.886;151.198;2024-01-11T12:53:32;25.50;99.90
25991;DHT22;13779;-33.886;151.198;2024-01-11T12:56:03;25.50;99.90
25991;DHT22;13779;-33.886;151.198;2024-01-11T12:58:38;25.50;99.90
25991;DHT22;13779;-33.886;151.198;2024-01-11T13:01:09;25.40;99.90
25991;DHT22;13779;-33.886;151.198;2024-01-11T13:03:44;25.50;99.90
25991;DHT22;13779;-33.886;151.198;2024-01-11T13:06:18;25.40;99.90
25991;DHT22;13779;-33.886;151.198;2024-01-11T13:08:49;25.40;99.90
25991;DHT22;13779;-33.886;151.198;2024-01-11T13:11:20;25.40;99.90
25991;DHT22;13779;-33.886;151.198;2024-01-11T13:13:51;25.40;99.90
25991;DHT22;13779;-33.886;151.198;2024-01-11T13:16:22;25.40;99.90
25991;DHT22;13779;-33.886;151.198;2024-01-11T13:18:54;25.40;99.90
25991;DHT22;13779;-33.886;151.198;2024-01-11T13:21:25;25.30;99.90
25991;DHT22;13779;-33.886;151.198;2024-01-11T13:23:56;25.30;99.90
25991;DHT22;13779;-33.886;151.198;2024-01-11T13:26:27;25.40;99.90
25991;DHT22;13779;-33.886;151.198;2024-01-11T13:28:57;25.30;99.90
25991;DHT22;13779;-33.886;151.198;2024-01-11T13:31:27;25.30;99.90
25991;DHT22;13779;-33.886;151.198;2024-01-11T13:33:58;25.30;99.90
25991;DHT22;13779;-33.886;151.198;2024-01-11T13:36:28;25.30;99.90
25991;DHT22;13779;-33.886;151.198;2024-01-11T13:38:59;25.30;99.90
25991;DHT22;13779;-33.886;151.198;2024-01-11T13:41:30;25.30;99.90
25991;DHT22;13779;-33.886;151.198;2024-01-11T13:44:00;25.30;99.90
25991;DHT22;13779;-33.886;151.198;2024-01-11T13:46:30;25.30;99.90
25991;DHT22;13779;-33.886;151.198;2024-01-11T13:49:01;25.30;99.90
25991;DHT22;13779;-33.886;151.198;2024-01-11T13:51:32;25.30;99.90
25991;DHT22;13779;-33.886;151.198;2024-01-11T13:54:09;25.30;99.90
25991;DHT22;13779;-33.886;151.198;2024-01-11T13:56:40;25.30;99.90
25991;DHT22;13779;-33.886;151.198;2024-01-11T13:59:10;25.30;99.90
25991;DHT22;13779;-33.886;151.198;2024-01-11T14:01:44;25.30;99.90
25991;DHT22;13779;-33.886;151.198;2024-01-11T14:04:14;25.30;99.90
25991;DHT22;13779;-33.886;151.198;2024-01-11T14:06:45;25.20;99.90
25991;DHT22;13779;-33.886;151.198;2024-01-11T14:09:15;25.20;99.90
25991;DHT22;13779;-33.886;151.198;2024-01-11T14:11:45;25.20;99.90
25991;DHT22;13779;-33.886;151.198;2024-01-11T14:14:18;25.20;99.90
25991;DHT22;13779;-33.886;151.198;2024-01-11T14:16:49;25.20;99.90
25991;DHT22;13779;-33.886;151.198;2024-01-11T14:19:21;25.20;99.90
25991;DHT22;13779;-33.886;151.198;2024-01-11T14:21:52;25.20;99.90
25991;DHT22;13779;-33.886;151.198;2024-01-11T14:24:23;25.20;99.90
25991;DHT22;13779;-33.886;151.198;2024-01-11T14:26:59;25.20;99.90
25991;DHT22;13779;-33.886;151.198;2024-01-11T14:29:31;25.20;99.90
25991;DHT22;13779;-33.886;151.198;2024-01-11T14:32:03;25.10;99.90
25991;DHT22;13779;-33.886;151.198;2024-01-11T14:34:33;25.10;99.90
25991;DHT22;13779;-33.886;151.198;2024-01-11T14:37:04;25.20;99.90
25991;DHT22;13779;-33.886;151.198;2024-01-11T14:39:34;25.10;99.90
25991;DHT22;13779;-33.886;151.198;2024-01-11T14:42:05;25.10;99.90
25991;DHT22;13779;-33.886;151.198;2024-01-11T14:44:38;25.10;99.90
25991;DHT22;13779;-33.886;151.198;2024-01-11T14:47:11;25.10;99.90
25991;DHT22;13779;-33.886;151.198;2024-01-11T14:49:41;25.10;99.90
25991;DHT22;13779;-33.886;151.198;2024-01-11T14:52:12;25.10;99.90
25991;DHT22;13779;-33.886;151.198;2024-01-11T14:54:45;25.10;99.90
25991;DHT22;13779;-33.886;151.198;2024-01-11T14:57:17;25.10;99.90
25991;DHT22;13779;-33.886;151.198;2024-01-11T14:59:49;25.10;99.90
25991;DHT22;13779;-33.886;151.198;2024-01-11T15:02:20;25.10;99.90
25991;DHT22;13779;-33.886;151.198;2024-01-11T15:04:51;25.10;99.90
25991;DHT22;13779;-33.886;151.198;2024-01-11T15:07:22;25.10;99.90
25991;DHT22;13779;-33.886;151.198;2024-01-11T15:09:53;25.10;99.90
25991;DHT22;13779;-33.886;151.198;2024-01-11T15:12:25;25.10;99.90
25991;DHT22;13779;-33.886;151.198;2024-01-11T15:14:55;25.10;99.90